createdAt,value
2017-12-15T00:00:38.082Z,979.78
2017-12-15T00:01:18.664Z,979.81
2017-12-15T00:01:59.146Z,979.85
2017-12-15T00:02:39.688Z,979.82
2017-12-15T00:03:20.265Z,979.82
2017-12-15T00:04:00.843Z,979.89
2017-12-15T00:04:41.329Z,979.84
2017-12-15T00:05:21.887Z,979.82
2017-12-15T00:06:02.383Z,979.89
2017-12-15T00:06:42.972Z,979.9
2017-12-15T00:07:23.464Z,979.86
2017-12-15T00:08:04.025Z,979.82
2017-12-15T00:08:44.627Z,979.77
2017-12-15T00:09:25.505Z,979.72
2017-12-15T00:10:05.992Z,979.79
2017-12-15T00:10:46.524Z,979.76
2017-12-15T00:11:27.079Z,979.79
2017-12-15T00:12:07.622Z,979.76
2017-12-15T00:12:48.135Z,979.8
2017-12-15T00:13:28.682Z,979.79
2017-12-15T00:14:09.232Z,979.85
2017-12-15T00:14:49.773Z,979.85
2017-12-15T00:15:30.331Z,979.91
2017-12-15T00:16:10.861Z,979.94
2017-12-15T00:16:51.401Z,980.01
2017-12-15T00:17:31.961Z,980.04
2017-12-15T00:18:12.513Z,979.97
2017-12-15T00:18:53.020Z,979.95
2017-12-15T00:19:33.567Z,979.96
2017-12-15T00:20:14.136Z,979.92
2017-12-15T00:20:54.726Z,979.86
2017-12-15T00:21:35.217Z,979.9
2017-12-15T00:22:15.720Z,979.93
2017-12-15T00:22:56.314Z,979.89
2017-12-15T00:23:36.814Z,979.88
2017-12-15T00:24:17.353Z,979.84
2017-12-15T00:24:57.904Z,979.87
2017-12-15T00:25:38.440Z,979.86
2017-12-15T00:26:18.995Z,979.9
2017-12-15T00:26:59.540Z,979.87
2017-12-15T00:27:40.104Z,979.88
2017-12-15T00:28:20.654Z,979.88
2017-12-15T00:29:01.180Z,979.88
2017-12-15T00:29:41.710Z,979.9
2017-12-15T00:30:22.179Z,979.93
2017-12-15T00:31:02.732Z,979.88
2017-12-15T00:31:43.314Z,979.92
2017-12-15T00:32:23.818Z,979.92
2017-12-15T00:33:04.371Z,979.91
2017-12-15T00:33:44.914Z,979.88
2017-12-15T00:34:25.412Z,979.9
2017-12-15T00:35:06.049Z,979.92
2017-12-15T00:35:46.580Z,980
2017-12-15T00:36:27.134Z,980
2017-12-15T00:37:07.646Z,979.97
2017-12-15T00:37:48.156Z,979.95
2017-12-15T00:38:28.667Z,979.96
2017-12-15T00:39:09.228Z,980.02
2017-12-15T00:39:49.760Z,980.01
2017-12-15T00:40:30.275Z,979.98
2017-12-15T00:41:10.914Z,980.01
2017-12-15T00:41:51.422Z,980
2017-12-15T00:42:31.901Z,979.99
2017-12-15T00:43:12.481Z,979.92
2017-12-15T00:43:52.956Z,979.96
2017-12-15T00:44:33.481Z,979.98
2017-12-15T00:45:13.998Z,979.98
2017-12-15T00:45:54.490Z,980.02
2017-12-15T00:46:35.035Z,980.02
2017-12-15T00:47:15.617Z,979.98
2017-12-15T00:47:56.103Z,980.04
2017-12-15T00:48:36.688Z,980
2017-12-15T00:49:17.242Z,979.96
2017-12-15T00:49:57.769Z,979.93
2017-12-15T00:50:38.280Z,979.9
2017-12-15T00:51:18.834Z,979.89
2017-12-15T00:51:59.666Z,979.88
2017-12-15T00:52:40.086Z,979.87
2017-12-15T00:53:20.636Z,979.84
2017-12-15T00:54:01.133Z,979.87
2017-12-15T00:54:41.696Z,979.89
2017-12-15T00:55:22.182Z,979.94
2017-12-15T00:56:02.742Z,979.93
2017-12-15T00:56:43.394Z,979.97
2017-12-15T00:57:23.924Z,979.95
2017-12-15T00:58:04.449Z,980
2017-12-15T00:58:45.008Z,980.04
2017-12-15T00:59:25.509Z,980.07
2017-12-15T01:00:06.041Z,980.06
2017-12-15T01:00:46.623Z,980.1
2017-12-15T01:01:27.236Z,980.03
2017-12-15T01:02:07.789Z,980.1
2017-12-15T01:02:48.291Z,980.12
2017-12-15T01:03:28.862Z,980.16
2017-12-15T01:04:09.320Z,980.21
2017-12-15T01:04:49.863Z,980.13
2017-12-15T01:05:30.460Z,980.32
2017-12-15T01:06:10.998Z,980.27
2017-12-15T01:06:51.509Z,980.31
2017-12-15T01:07:32.040Z,980.39
2017-12-15T01:08:12.618Z,980.57
2017-12-15T01:08:53.229Z,980.51
2017-12-15T01:09:33.693Z,980.64
2017-12-15T01:10:14.249Z,980.57
2017-12-15T01:10:54.790Z,980.81
2017-12-15T01:11:35.354Z,980.8
2017-12-15T01:12:15.899Z,981.01
2017-12-15T01:12:56.479Z,981.08
2017-12-15T01:13:37.018Z,981.24
2017-12-15T01:14:17.499Z,981.14
2017-12-15T01:14:58.080Z,981.17
2017-12-15T01:15:38.585Z,981.18
2017-12-15T01:16:19.113Z,981.21
2017-12-15T01:16:59.634Z,981.27
2017-12-15T01:17:40.208Z,981.29
2017-12-15T01:18:20.741Z,981.36
2017-12-15T01:19:01.286Z,981.32
2017-12-15T01:19:41.866Z,981.33
2017-12-15T01:20:22.361Z,981.42
2017-12-15T01:21:03.015Z,981.49
2017-12-15T01:21:43.568Z,981.32
2017-12-15T01:22:24.120Z,981.3
2017-12-15T01:23:04.661Z,981.39
2017-12-15T01:23:45.228Z,981.41
2017-12-15T01:24:25.802Z,981.39
2017-12-15T01:25:06.359Z,981.36
2017-12-15T01:25:46.894Z,981.41
2017-12-15T01:26:27.423Z,981.45
2017-12-15T01:27:07.944Z,981.39
2017-12-15T01:27:48.488Z,981.4
2017-12-15T01:28:29.064Z,981.47
2017-12-15T01:29:09.568Z,981.48
2017-12-15T01:29:50.164Z,981.46
2017-12-15T01:30:30.697Z,981.52
2017-12-15T01:31:11.200Z,981.65
2017-12-15T01:31:51.809Z,981.57
2017-12-15T01:32:32.285Z,981.6
2017-12-15T01:33:12.808Z,981.59
2017-12-15T01:33:53.403Z,981.56
2017-12-15T01:34:33.954Z,981.55
2017-12-15T01:35:14.425Z,981.67
2017-12-15T01:35:55.000Z,981.61
2017-12-15T01:36:35.520Z,981.62
2017-12-15T01:37:16.028Z,981.67
2017-12-15T01:37:56.596Z,981.69
2017-12-15T01:38:37.131Z,981.62
2017-12-15T01:39:17.719Z,981.69
2017-12-15T01:39:58.227Z,981.66
2017-12-15T01:40:38.824Z,981.76
2017-12-15T01:41:19.389Z,981.79
2017-12-15T01:41:59.955Z,981.87
2017-12-15T01:42:40.529Z,981.82
2017-12-15T01:43:21.170Z,981.84
2017-12-15T01:44:01.693Z,981.86
2017-12-15T01:44:42.239Z,981.94
2017-12-15T01:45:22.790Z,981.93
2017-12-15T01:46:03.310Z,981.92
2017-12-15T01:46:43.841Z,982.01
2017-12-15T01:47:24.378Z,982
2017-12-15T01:48:04.943Z,981.91
2017-12-15T01:48:45.514Z,981.97
2017-12-15T01:49:26.053Z,982
2017-12-15T01:50:06.544Z,982.07
2017-12-15T01:50:47.099Z,982.07
2017-12-15T01:51:27.649Z,982.09
2017-12-15T01:52:08.163Z,982.1
2017-12-15T01:52:48.763Z,982.15
2017-12-15T01:53:29.306Z,982.21
2017-12-15T01:54:09.809Z,982.14
2017-12-15T01:54:50.415Z,982.25
2017-12-15T01:55:30.905Z,982.27
2017-12-15T01:56:11.393Z,982.3
2017-12-15T01:56:51.954Z,982.3
2017-12-15T01:57:32.463Z,982.31
2017-12-15T01:58:13.042Z,982.28
2017-12-15T01:58:53.560Z,982.31
2017-12-15T01:59:34.096Z,982.33
2017-12-15T02:00:14.774Z,982.32
2017-12-15T02:00:55.309Z,982.37
2017-12-15T02:01:35.965Z,982.25
2017-12-15T02:02:16.510Z,982.31
2017-12-15T02:02:57.003Z,982.27
2017-12-15T02:03:37.616Z,982.22
2017-12-15T02:04:18.177Z,982.23
2017-12-15T02:04:58.736Z,982.12
2017-12-15T02:05:39.258Z,982.14
2017-12-15T02:06:19.810Z,982.23
2017-12-15T02:07:00.377Z,982.2
2017-12-15T02:07:40.888Z,982.29
2017-12-15T02:08:21.453Z,982.31
2017-12-15T02:09:01.975Z,982.27
2017-12-15T02:09:42.475Z,982.33
2017-12-15T02:10:23.034Z,982.27
2017-12-15T02:11:03.542Z,982.3
2017-12-15T02:11:44.081Z,982.26
2017-12-15T02:12:24.601Z,982.22
2017-12-15T02:13:05.142Z,982.25
2017-12-15T02:13:45.699Z,982.24
2017-12-15T02:14:26.243Z,982.26
2017-12-15T02:15:06.815Z,982.29
2017-12-15T02:15:47.326Z,982.31
2017-12-15T02:16:27.859Z,982.39
2017-12-15T02:17:08.371Z,982.34
2017-12-15T02:17:48.917Z,982.34
2017-12-15T02:18:29.469Z,982.33
2017-12-15T02:19:10.002Z,982.3
2017-12-15T02:19:50.689Z,982.26
2017-12-15T02:20:31.317Z,982.23
2017-12-15T02:21:12.314Z,982.16
2017-12-15T02:21:53.271Z,982.18
2017-12-15T02:22:33.952Z,982.17
2017-12-15T02:23:14.630Z,982.17
2017-12-15T02:23:55.338Z,982.18
2017-12-15T02:24:36.373Z,982.17
2017-12-15T02:25:17.163Z,982.19
2017-12-15T02:25:57.818Z,982.18
2017-12-15T02:26:38.405Z,982.22
2017-12-15T02:27:19.168Z,982.22
2017-12-15T02:27:59.762Z,982.29
2017-12-15T02:28:40.405Z,982.22
2017-12-15T02:29:21.180Z,982.25
2017-12-15T02:30:01.811Z,982.16
2017-12-15T02:30:42.395Z,982.22
2017-12-15T02:31:23.001Z,982.15
2017-12-15T02:32:03.686Z,982.22
2017-12-15T02:32:44.504Z,982.23
2017-12-15T02:33:25.142Z,982.24
2017-12-15T02:34:05.807Z,982.28
2017-12-15T02:34:46.603Z,982.28
2017-12-15T02:35:27.398Z,982.28
2017-12-15T02:36:09.076Z,982.24
2017-12-15T02:36:49.790Z,982.33
2017-12-15T02:37:30.512Z,982.31
2017-12-15T02:38:11.374Z,982.29
2017-12-15T02:38:52.348Z,982.31
2017-12-15T02:39:32.985Z,982.37
2017-12-15T02:40:13.530Z,982.36
2017-12-15T02:40:54.126Z,982.36
2017-12-15T02:41:34.742Z,982.38
2017-12-15T02:42:15.344Z,982.45
2017-12-15T02:42:55.907Z,982.47
2017-12-15T02:43:36.560Z,982.44
2017-12-15T02:44:17.137Z,982.47
2017-12-15T02:44:57.833Z,982.52
2017-12-15T02:45:38.546Z,982.52
2017-12-15T02:46:19.096Z,982.5
2017-12-15T02:46:59.600Z,982.52
2017-12-15T02:47:40.280Z,982.5
2017-12-15T02:48:20.805Z,982.54
2017-12-15T02:49:01.522Z,982.57
2017-12-15T02:49:42.197Z,982.57
2017-12-15T02:50:22.935Z,982.65
2017-12-15T02:51:03.515Z,982.54
2017-12-15T02:51:44.579Z,982.59
2017-12-15T02:52:25.469Z,982.63
2017-12-15T02:53:06.170Z,982.62
2017-12-15T02:53:46.838Z,982.56
2017-12-15T02:54:27.840Z,982.58
2017-12-15T02:55:08.689Z,982.55
2017-12-15T02:55:49.470Z,982.56
2017-12-15T02:56:30.058Z,982.59
2017-12-15T02:57:10.639Z,982.61
2017-12-15T02:57:51.362Z,982.64
2017-12-15T02:58:31.907Z,982.64
2017-12-15T02:59:12.600Z,982.57
2017-12-15T02:59:53.206Z,982.63
2017-12-15T03:00:34.002Z,982.59
2017-12-15T03:01:14.876Z,982.58
2017-12-15T03:01:55.579Z,982.62
2017-12-15T03:02:36.472Z,982.6
2017-12-15T03:03:17.246Z,982.62
2017-12-15T03:03:59.177Z,982.59
2017-12-15T03:04:39.908Z,982.64
2017-12-15T03:05:20.492Z,982.66
2017-12-15T03:06:01.454Z,982.65
2017-12-15T03:06:42.231Z,982.73
2017-12-15T03:07:22.967Z,982.73
2017-12-15T03:08:03.519Z,982.76
2017-12-15T03:08:44.422Z,982.81
2017-12-15T03:09:24.920Z,982.78
2017-12-15T03:10:05.430Z,982.82
2017-12-15T03:10:46.015Z,982.85
2017-12-15T03:11:27.070Z,982.86
2017-12-15T03:12:07.878Z,982.83
2017-12-15T03:12:48.587Z,982.88
2017-12-15T03:13:29.359Z,982.91
2017-12-15T03:14:10.185Z,982.95
2017-12-15T03:14:50.775Z,982.95
2017-12-15T03:15:31.426Z,982.95
2017-12-15T03:16:12.248Z,983.04
2017-12-15T03:16:52.915Z,983.03
2017-12-15T03:17:33.838Z,983.07
2017-12-15T03:18:14.895Z,983.11
2017-12-15T03:18:55.550Z,983.12
2017-12-15T03:19:36.407Z,983.1
2017-12-15T03:20:17.000Z,983.19
2017-12-15T03:20:57.621Z,983.24
2017-12-15T03:21:38.370Z,983.28
2017-12-15T03:22:18.922Z,983.33
2017-12-15T03:22:59.672Z,983.24
2017-12-15T03:23:40.566Z,983.36
2017-12-15T03:24:21.214Z,983.34
2017-12-15T03:25:02.440Z,983.25
2017-12-15T03:25:43.420Z,983.29
2017-12-15T03:26:24.092Z,983.25
2017-12-15T03:27:04.703Z,983.31
2017-12-15T03:27:45.467Z,983.33
2017-12-15T03:28:26.305Z,983.27
2017-12-15T03:29:06.816Z,983.24
2017-12-15T03:29:47.391Z,983.33
2017-12-15T03:30:27.941Z,983.32
2017-12-15T03:31:08.487Z,983.36
2017-12-15T03:31:48.974Z,983.35
2017-12-15T03:32:29.492Z,983.31
2017-12-15T03:33:10.010Z,983.36
2017-12-15T03:33:50.557Z,983.37
2017-12-15T03:34:31.087Z,983.41
2017-12-15T03:35:11.617Z,983.38
2017-12-15T03:35:52.160Z,983.4
2017-12-15T03:36:32.682Z,983.39
2017-12-15T03:37:13.227Z,983.46
2017-12-15T03:37:53.759Z,983.47
2017-12-15T03:38:34.280Z,983.39
2017-12-15T03:39:14.860Z,983.43
2017-12-15T03:39:55.362Z,983.47
2017-12-15T03:40:35.915Z,983.44
2017-12-15T03:41:16.479Z,983.49
2017-12-15T03:41:57.008Z,983.47
2017-12-15T03:42:37.532Z,983.52
2017-12-15T03:43:18.050Z,983.49
2017-12-15T03:43:58.559Z,983.53
2017-12-15T03:44:39.121Z,983.47
2017-12-15T03:45:19.578Z,983.49
2017-12-15T03:46:00.186Z,983.52
2017-12-15T03:46:40.685Z,983.54
2017-12-15T03:47:21.189Z,983.49
2017-12-15T03:48:01.774Z,983.51
2017-12-15T03:48:42.268Z,983.51
2017-12-15T03:49:22.800Z,983.52
2017-12-15T03:50:03.358Z,983.52
2017-12-15T03:50:43.885Z,983.49
2017-12-15T03:51:24.408Z,983.56
2017-12-15T03:52:04.986Z,983.56
2017-12-15T03:52:45.530Z,983.49
2017-12-15T03:53:26.142Z,983.5
2017-12-15T03:54:06.613Z,983.52
2017-12-15T03:54:47.152Z,983.53
2017-12-15T03:55:27.682Z,983.53
2017-12-15T03:56:08.242Z,983.51
2017-12-15T03:56:48.790Z,983.56
2017-12-15T03:57:29.315Z,983.57
2017-12-15T03:58:09.918Z,983.54
2017-12-15T03:58:50.487Z,983.61
2017-12-15T03:59:31.106Z,983.63
2017-12-15T04:00:11.697Z,983.61
2017-12-15T04:00:52.245Z,983.59
2017-12-15T04:01:32.746Z,983.62
2017-12-15T04:02:13.315Z,983.61
2017-12-15T04:02:53.860Z,983.61
2017-12-15T04:03:34.458Z,983.6
2017-12-15T04:04:14.980Z,983.65
2017-12-15T04:04:55.636Z,983.57
2017-12-15T04:05:36.171Z,983.64
2017-12-15T04:06:16.696Z,983.64
2017-12-15T04:06:57.267Z,983.7
2017-12-15T04:07:37.860Z,983.71
2017-12-15T04:08:18.361Z,983.67
2017-12-15T04:08:58.884Z,983.65
2017-12-15T04:09:39.427Z,983.69
2017-12-15T04:10:19.953Z,983.69
2017-12-15T04:11:00.515Z,983.69
2017-12-15T04:11:40.987Z,983.72
2017-12-15T04:12:21.517Z,983.71
2017-12-15T04:13:02.036Z,983.62
2017-12-15T04:13:42.544Z,983.6
2017-12-15T04:14:23.133Z,983.67
2017-12-15T04:15:03.673Z,983.67
2017-12-15T04:15:44.155Z,983.67
2017-12-15T04:16:24.753Z,983.66
2017-12-15T04:17:05.319Z,983.64
2017-12-15T04:17:45.825Z,983.68
2017-12-15T04:18:26.485Z,983.66
2017-12-15T04:19:07.072Z,983.7
2017-12-15T04:19:47.583Z,983.71
2017-12-15T04:20:28.146Z,983.73
2017-12-15T04:21:08.674Z,983.69
2017-12-15T04:21:49.183Z,983.74
2017-12-15T04:22:29.735Z,983.72
2017-12-15T04:23:10.211Z,983.74
2017-12-15T04:23:50.742Z,983.81
2017-12-15T04:24:31.249Z,983.76
2017-12-15T04:25:11.793Z,983.74
2017-12-15T04:25:52.381Z,983.76
2017-12-15T04:26:32.908Z,983.81
2017-12-15T04:27:13.488Z,983.86
2017-12-15T04:27:54.052Z,983.83
2017-12-15T04:28:34.615Z,983.87
2017-12-15T04:29:15.078Z,983.87
2017-12-15T04:29:55.733Z,983.81
2017-12-15T04:30:36.221Z,983.82
2017-12-15T04:31:16.730Z,983.9
2017-12-15T04:31:57.290Z,983.9
2017-12-15T04:32:37.847Z,983.91
2017-12-15T04:33:18.378Z,983.89
2017-12-15T04:33:58.852Z,983.86
2017-12-15T04:34:39.370Z,983.89
2017-12-15T04:35:19.917Z,983.85
2017-12-15T04:36:00.477Z,983.9
2017-12-15T04:36:40.989Z,983.9
2017-12-15T04:37:21.533Z,983.9
2017-12-15T04:38:02.133Z,983.96
2017-12-15T04:38:42.615Z,983.97
2017-12-15T04:39:23.175Z,983.95
2017-12-15T04:40:03.687Z,983.95
2017-12-15T04:40:44.233Z,983.93
2017-12-15T04:41:24.825Z,983.97
2017-12-15T04:42:05.344Z,983.94
2017-12-15T04:42:45.831Z,983.94
2017-12-15T04:43:26.416Z,983.89
2017-12-15T04:44:06.942Z,983.98
2017-12-15T04:44:47.461Z,983.91
2017-12-15T04:45:28.034Z,983.97
2017-12-15T04:46:08.583Z,983.97
2017-12-15T04:46:49.106Z,983.95
2017-12-15T04:47:29.659Z,984.01
2017-12-15T04:48:10.175Z,984
2017-12-15T04:48:50.752Z,983.98
2017-12-15T04:49:31.230Z,983.96
2017-12-15T04:50:11.773Z,984.01
2017-12-15T04:50:52.347Z,983.99
2017-12-15T04:51:32.870Z,984.03
2017-12-15T04:52:13.488Z,983.99
2017-12-15T04:52:53.947Z,984.03
2017-12-15T04:53:34.479Z,984.02
2017-12-15T04:54:15.031Z,984.07
2017-12-15T04:54:55.578Z,984.09
2017-12-15T04:55:36.191Z,984.04
2017-12-15T04:56:16.685Z,984.1
2017-12-15T04:56:57.244Z,984.12
2017-12-15T04:57:37.801Z,984.07
2017-12-15T04:58:18.345Z,984.06
2017-12-15T04:58:58.858Z,984.09
2017-12-15T04:59:39.396Z,984.12
2017-12-15T05:00:19.976Z,984.14
2017-12-15T05:01:00.551Z,984.16
2017-12-15T05:01:41.067Z,984.2
2017-12-15T05:02:21.606Z,984.19
2017-12-15T05:03:02.166Z,984.23
2017-12-15T05:03:42.744Z,984.25
2017-12-15T05:04:23.260Z,984.15
2017-12-15T05:05:03.790Z,984.25
2017-12-15T05:05:44.351Z,984.23
2017-12-15T05:06:24.847Z,984.26
2017-12-15T05:07:05.458Z,984.28
2017-12-15T05:07:45.951Z,984.29
2017-12-15T05:08:26.506Z,984.3
2017-12-15T05:09:06.994Z,984.31
2017-12-15T05:09:47.506Z,984.3
2017-12-15T05:10:28.072Z,984.3
2017-12-15T05:11:08.599Z,984.32
2017-12-15T05:11:49.167Z,984.29
2017-12-15T05:12:29.683Z,984.32
2017-12-15T05:13:10.298Z,984.31
2017-12-15T05:13:50.770Z,984.3
2017-12-15T05:14:31.313Z,984.34
2017-12-15T05:15:11.851Z,984.35
2017-12-15T05:15:52.345Z,984.42
2017-12-15T05:16:32.949Z,984.39
2017-12-15T05:17:13.429Z,984.38
2017-12-15T05:17:53.988Z,984.44
2017-12-15T05:18:34.467Z,984.4
2017-12-15T05:19:14.998Z,984.36
2017-12-15T05:19:55.552Z,984.41
2017-12-15T05:20:36.102Z,984.42
2017-12-15T05:21:16.679Z,984.4
2017-12-15T05:21:57.244Z,984.35
2017-12-15T05:22:37.762Z,984.39
2017-12-15T05:23:18.315Z,984.36
2017-12-15T05:23:58.944Z,984.4
2017-12-15T05:24:39.430Z,984.4
2017-12-15T05:25:19.988Z,984.39
2017-12-15T05:26:00.542Z,984.39
2017-12-15T05:26:41.043Z,984.36
2017-12-15T05:27:21.577Z,984.38
2017-12-15T05:28:02.109Z,984.41
2017-12-15T05:28:42.690Z,984.41
2017-12-15T05:29:23.220Z,984.39
2017-12-15T05:30:03.721Z,984.38
2017-12-15T05:30:44.280Z,984.36
2017-12-15T05:31:24.801Z,984.36
2017-12-15T05:32:05.321Z,984.43
2017-12-15T05:32:45.823Z,984.43
2017-12-15T05:33:26.395Z,984.48
2017-12-15T05:34:06.906Z,984.43
2017-12-15T05:34:47.446Z,984.46
2017-12-15T05:35:28.017Z,984.46
2017-12-15T05:36:08.518Z,984.47
2017-12-15T05:36:49.156Z,984.52
2017-12-15T05:37:29.612Z,984.48
2017-12-15T05:38:10.160Z,984.45
2017-12-15T05:38:50.621Z,984.45
2017-12-15T05:39:31.216Z,984.46
2017-12-15T05:40:11.765Z,984.45
2017-12-15T05:40:52.281Z,984.49
2017-12-15T05:41:32.789Z,984.47
2017-12-15T05:42:13.339Z,984.43
2017-12-15T05:42:53.887Z,984.49
2017-12-15T05:43:34.486Z,984.44
2017-12-15T05:44:14.991Z,984.46
2017-12-15T05:44:55.583Z,984.49
2017-12-15T05:45:36.113Z,984.48
2017-12-15T05:46:16.622Z,984.44
2017-12-15T05:46:57.139Z,984.41
2017-12-15T05:47:37.712Z,984.45
2017-12-15T05:48:18.257Z,984.46
2017-12-15T05:48:58.870Z,984.48
2017-12-15T05:49:39.371Z,984.56
2017-12-15T05:50:20.078Z,984.56
2017-12-15T05:51:00.488Z,984.56
2017-12-15T05:51:40.966Z,984.55
2017-12-15T05:52:21.533Z,984.52
2017-12-15T05:53:02.048Z,984.56
2017-12-15T05:53:42.570Z,984.56
2017-12-15T05:54:23.078Z,984.52
2017-12-15T05:55:03.602Z,984.54
2017-12-15T05:55:44.104Z,984.54
2017-12-15T05:56:24.633Z,984.55
2017-12-15T05:57:05.172Z,984.56
2017-12-15T05:57:45.720Z,984.6
2017-12-15T05:58:26.264Z,984.55
2017-12-15T05:59:06.784Z,984.61
2017-12-15T05:59:47.357Z,984.65
2017-12-15T06:00:27.865Z,984.6
2017-12-15T06:01:08.382Z,984.61
2017-12-15T06:01:48.950Z,984.66
2017-12-15T06:02:29.545Z,984.68
2017-12-15T06:03:10.036Z,984.67
2017-12-15T06:03:50.614Z,984.66
2017-12-15T06:04:31.141Z,984.73
2017-12-15T06:05:11.677Z,984.7
2017-12-15T06:05:52.216Z,984.77
2017-12-15T06:06:32.794Z,984.74
2017-12-15T06:07:13.334Z,984.77
2017-12-15T06:07:53.834Z,984.79
2017-12-15T06:08:34.470Z,984.78
2017-12-15T06:09:14.987Z,984.75
2017-12-15T06:09:55.531Z,984.73
2017-12-15T06:10:36.212Z,984.75
2017-12-15T06:11:16.598Z,984.76
2017-12-15T06:11:57.098Z,984.72
2017-12-15T06:12:37.786Z,984.76
2017-12-15T06:13:18.363Z,984.73
2017-12-15T06:13:58.916Z,984.75
2017-12-15T06:14:39.491Z,984.76
2017-12-15T06:15:20.068Z,984.75
2017-12-15T06:16:00.580Z,984.75
2017-12-15T06:16:41.114Z,984.79
2017-12-15T06:17:21.634Z,984.75
2017-12-15T06:18:02.141Z,984.8
2017-12-15T06:18:42.737Z,984.81
2017-12-15T06:19:23.202Z,984.77
2017-12-15T06:20:03.742Z,984.78
2017-12-15T06:20:44.237Z,984.81
2017-12-15T06:21:24.762Z,984.81
2017-12-15T06:22:05.325Z,984.79
2017-12-15T06:22:45.875Z,984.79
2017-12-15T06:23:26.359Z,984.8
2017-12-15T06:24:06.964Z,984.82
2017-12-15T06:24:47.502Z,984.79
2017-12-15T06:25:28.032Z,984.84
2017-12-15T06:26:08.554Z,984.79
2017-12-15T06:26:49.142Z,984.8
2017-12-15T06:27:29.767Z,984.78
2017-12-15T06:28:10.275Z,984.8
2017-12-15T06:28:50.807Z,984.84
2017-12-15T06:29:31.370Z,984.85
2017-12-15T06:30:11.909Z,984.82
2017-12-15T06:30:52.403Z,984.89
2017-12-15T06:31:33.002Z,984.84
2017-12-15T06:32:13.503Z,984.84
2017-12-15T06:32:54.094Z,984.87
2017-12-15T06:33:34.638Z,984.86
2017-12-15T06:34:15.122Z,984.84
2017-12-15T06:34:55.795Z,984.79
2017-12-15T06:35:36.350Z,984.81
2017-12-15T06:36:16.858Z,984.78
2017-12-15T06:36:57.520Z,984.79
2017-12-15T06:37:38.069Z,984.77
2017-12-15T06:38:18.596Z,984.76
2017-12-15T06:38:59.157Z,984.8
2017-12-15T06:39:39.674Z,984.78
2017-12-15T06:40:20.216Z,984.77
2017-12-15T06:41:00.818Z,984.81
2017-12-15T06:41:41.344Z,984.77
2017-12-15T06:42:21.900Z,984.79
2017-12-15T06:43:02.448Z,984.78
2017-12-15T06:43:42.982Z,984.78
2017-12-15T06:44:23.456Z,984.77
2017-12-15T06:45:03.984Z,984.73
2017-12-15T06:45:44.550Z,984.73
2017-12-15T06:46:25.020Z,984.77
2017-12-15T06:47:05.554Z,984.75
2017-12-15T06:47:46.134Z,984.75
2017-12-15T06:48:26.658Z,984.77
2017-12-15T06:49:07.217Z,984.73
2017-12-15T06:49:47.742Z,984.77
2017-12-15T06:50:28.265Z,984.78
2017-12-15T06:51:08.811Z,984.74
2017-12-15T06:51:49.334Z,984.74
2017-12-15T06:52:29.893Z,984.77
2017-12-15T06:53:10.424Z,984.74
2017-12-15T06:53:50.954Z,984.72
2017-12-15T06:54:31.518Z,984.7
2017-12-15T06:55:12.026Z,984.73
2017-12-15T06:55:52.568Z,984.76
2017-12-15T06:56:33.230Z,984.71
2017-12-15T06:57:13.729Z,984.69
2017-12-15T06:57:54.394Z,984.75
2017-12-15T06:58:34.907Z,984.74
2017-12-15T06:59:15.412Z,984.7
2017-12-15T06:59:55.984Z,984.7
2017-12-15T07:00:36.468Z,984.7
2017-12-15T07:01:17.106Z,984.65
2017-12-15T07:01:57.640Z,984.66
2017-12-15T07:02:38.237Z,984.67
2017-12-15T07:03:18.820Z,984.65
2017-12-15T07:03:59.407Z,984.57
2017-12-15T07:04:39.986Z,984.65
2017-12-15T07:05:20.503Z,984.66
2017-12-15T07:06:01.037Z,984.63
2017-12-15T07:06:41.718Z,984.59
2017-12-15T07:07:23.653Z,984.57
2017-12-15T07:08:04.376Z,984.59
2017-12-15T07:08:45.582Z,984.65
2017-12-15T07:09:26.186Z,984.59
2017-12-15T07:10:06.914Z,984.6
2017-12-15T07:10:47.624Z,984.6
2017-12-15T07:11:28.356Z,984.63
2017-12-15T07:12:08.924Z,984.58
2017-12-15T07:12:49.488Z,984.59
2017-12-15T07:13:32.529Z,984.65
2017-12-15T07:14:13.599Z,984.68
2017-12-15T07:14:54.098Z,984.66
2017-12-15T07:15:36.004Z,984.7
2017-12-15T07:16:16.548Z,984.75
2017-12-15T07:24:36.987Z,984.83
2017-12-15T07:25:17.621Z,984.81
2017-12-15T07:25:58.166Z,984.87
2017-12-15T07:26:38.624Z,984.92
2017-12-15T07:27:19.249Z,984.86
2017-12-15T07:27:59.728Z,984.89
2017-12-15T07:28:40.298Z,984.86
2017-12-15T07:29:20.890Z,984.95
2017-12-15T07:30:01.474Z,984.9
2017-12-15T07:30:41.996Z,984.89
2017-12-15T07:31:22.599Z,984.95
2017-12-15T07:32:03.443Z,984.94
2017-12-15T07:32:43.967Z,984.92
2017-12-15T07:33:24.549Z,984.92
2017-12-15T07:34:05.066Z,984.97
2017-12-15T07:34:45.868Z,984.93
2017-12-15T07:35:26.427Z,984.97
2017-12-15T07:36:06.998Z,984.97
2017-12-15T07:36:47.640Z,984.91
2017-12-15T07:37:28.072Z,984.98
2017-12-15T07:38:08.584Z,984.99
2017-12-15T07:38:49.167Z,985.04
2017-12-15T07:39:29.684Z,985.05
2017-12-15T07:40:10.173Z,985.03
2017-12-15T07:40:50.659Z,985.03
2017-12-15T07:41:31.448Z,984.95
2017-12-15T07:42:11.784Z,984.97
2017-12-15T07:42:52.302Z,984.98
2017-12-15T07:43:32.915Z,984.96
2017-12-15T07:44:13.420Z,984.98
2017-12-15T07:44:53.948Z,984.94
2017-12-15T07:45:35.173Z,984.96
2017-12-15T07:46:15.793Z,984.95
2017-12-15T07:46:56.327Z,984.9
2017-12-15T07:47:36.838Z,984.96
2017-12-15T07:48:17.447Z,984.93
2017-12-15T07:48:57.947Z,984.89
2017-12-15T07:49:38.502Z,984.85
2017-12-15T07:50:19.031Z,984.86
2017-12-15T07:50:59.544Z,984.87
2017-12-15T07:51:40.018Z,984.9
2017-12-15T07:52:20.646Z,984.85
2017-12-15T07:53:01.208Z,984.9
2017-12-15T07:53:41.695Z,984.88
2017-12-15T07:54:22.192Z,984.89
2017-12-15T07:55:02.735Z,984.86
2017-12-15T07:55:43.352Z,984.86
2017-12-15T07:56:23.865Z,984.87
2017-12-15T07:57:04.454Z,984.87
2017-12-15T07:57:44.946Z,984.89
2017-12-15T07:58:25.496Z,984.81
2017-12-15T07:59:06.017Z,984.81
2017-12-15T07:59:46.558Z,984.77
2017-12-15T08:00:27.072Z,984.84
2017-12-15T08:01:07.606Z,984.77
2017-12-15T08:01:48.164Z,984.8
2017-12-15T08:02:28.757Z,984.75
2017-12-15T08:03:09.334Z,984.81
2017-12-15T08:03:49.803Z,984.78
2017-12-15T08:04:30.385Z,984.79
2017-12-15T08:05:10.893Z,984.79
2017-12-15T08:05:51.482Z,984.8
2017-12-15T08:06:32.177Z,984.85
2017-12-15T08:07:12.738Z,984.81
2017-12-15T08:07:53.247Z,984.85
2017-12-15T08:08:33.810Z,984.81
2017-12-15T08:09:14.293Z,984.88
2017-12-15T08:09:54.865Z,984.89
2017-12-15T08:10:35.402Z,984.87
2017-12-15T08:11:15.946Z,984.88
2017-12-15T08:11:56.509Z,984.86
2017-12-15T08:12:37.029Z,984.87
2017-12-15T08:13:17.578Z,984.85
2017-12-15T08:13:58.082Z,984.8
2017-12-15T08:14:38.600Z,984.81
2017-12-15T08:15:19.133Z,984.81
2017-12-15T08:15:59.675Z,984.81
2017-12-15T08:16:40.186Z,984.79
2017-12-15T08:17:20.753Z,984.82
2017-12-15T08:18:01.278Z,984.8
2017-12-15T08:18:41.817Z,984.75
2017-12-15T08:19:22.366Z,984.81
2017-12-15T08:20:02.875Z,984.82
2017-12-15T08:20:43.444Z,984.83
2017-12-15T08:21:24.004Z,984.85
2017-12-15T08:22:04.524Z,984.81
2017-12-15T08:22:45.018Z,984.81
2017-12-15T08:23:25.564Z,984.83
2017-12-15T08:24:06.073Z,984.8
2017-12-15T08:24:46.569Z,984.83
2017-12-15T08:25:27.162Z,984.82
2017-12-15T08:26:07.772Z,984.83
2017-12-15T08:26:48.339Z,984.8
2017-12-15T08:27:28.883Z,984.84
2017-12-15T08:28:09.424Z,984.82
2017-12-15T08:28:49.980Z,984.84
2017-12-15T08:29:30.534Z,984.8
2017-12-15T08:30:11.074Z,984.78
2017-12-15T08:30:51.617Z,984.77
2017-12-15T08:31:32.179Z,984.75
2017-12-15T08:32:12.697Z,984.78
2017-12-15T08:32:53.177Z,984.77
2017-12-15T08:33:33.745Z,984.81
2017-12-15T08:34:14.283Z,984.79
2017-12-15T08:34:54.756Z,984.76
2017-12-15T08:35:35.356Z,984.81
2017-12-15T08:36:15.826Z,984.76